sensor_id;sensor_type;location;lat;lon;timestamp;P1;durP1;ratioP1;P2;durP2;ratioP2
18249;SDS011;27980;52.126;5.572;2023-05-17T00:00:40;9.52;;;2.88;;
18249;SDS011;27980;52.126;5.572;2023-05-17T00:03:07;5.72;;;2.10;;
18249;SDS011;27980;52.126;5.572;2023-05-17T00:05:33;8.07;;;3.08;;
18249;SDS011;27980;52.126;5.572;2023-05-17T00:08:01;5.63;;;2.60;;
18249;SDS011;27980;52.126;5.572;2023-05-17T00:10:28;5.05;;;2.15;;
18249;SDS011;27980;52.126;5.572;2023-05-17T00:12:54;4.90;;;2.50;;
18249;SDS011;27980;52.126;5.572;2023-05-17T00:15:21;10.95;;;3.17;;
18249;SDS011;27980;52.126;5.572;2023-05-17T00:17:48;7.60;;;1.98;;
18249;SDS011;27980;52.126;5.572;2023-05-17T00:20:15;8.57;;;2.53;;
18249;SDS011;27980;52.126;5.572;2023-05-17T00:22:41;10.30;;;2.67;;
18249;SDS011;27980;52.126;5.572;2023-05-17T00:25:09;7.88;;;2.95;;
18249;SDS011;27980;52.126;5.572;2023-05-17T00:27:36;6.00;;;2.85;;
18249;SDS011;27980;52.126;5.572;2023-05-17T00:30:02;8.77;;;2.53;;
18249;SDS011;27980;52.126;5.572;2023-05-17T00:32:29;6.93;;;2.50;;
18249;SDS011;27980;52.126;5.572;2023-05-17T00:34:57;12.65;;;2.50;;
18249;SDS011;27980;52.126;5.572;2023-05-17T00:37:26;9.63;;;3.15;;
18249;SDS011;27980;52.126;5.572;2023-05-17T00:39:53;11.23;;;3.13;;
18249;SDS011;27980;52.126;5.572;2023-05-17T00:42:19;9.75;;;2.60;;
18249;SDS011;27980;52.126;5.572;2023-05-17T00:44:46;4.25;;;2.53;;
18249;SDS011;27980;52.126;5.572;2023-05-17T00:47:12;5.53;;;2.60;;
18249;SDS011;27980;52.126;5.572;2023-05-17T00:49:40;10.25;;;3.35;;
18249;SDS011;27980;52.126;5.572;2023-05-17T00:52:08;6.97;;;2.63;;
18249;SDS011;27980;52.126;5.572;2023-05-17T00:54:35;5.03;;;2.53;;
18249;SDS011;27980;52.126;5.572;2023-05-17T00:57:01;8.43;;;2.95;;
18249;SDS011;27980;52.126;5.572;2023-05-17T00:59:28;10.25;;;2.90;;
18249;SDS011;27980;52.126;5.572;2023-05-17T01:01:55;10.40;;;3.65;;
18249;SDS011;27980;52.126;5.572;2023-05-17T01:04:22;9.00;;;2.70;;
18249;SDS011;27980;52.126;5.572;2023-05-17T01:06:49;15.50;;;3.42;;
18249;SDS011;27980;52.126;5.572;2023-05-17T01:09:17;8.15;;;2.45;;
18249;SDS011;27980;52.126;5.572;2023-05-17T01:11:45;12.30;;;3.90;;
18249;SDS011;27980;52.126;5.572;2023-05-17T01:14:17;10.15;;;3.22;;
18249;SDS011;27980;52.126;5.572;2023-05-17T01:16:48;11.23;;;2.72;;
18249;SDS011;27980;52.126;5.572;2023-05-17T01:19:18;13.93;;;3.53;;
18249;SDS011;27980;52.126;5.572;2023-05-17T01:21:56;7.15;;;2.10;;
18249;SDS011;27980;52.126;5.572;2023-05-17T01:24:26;8.05;;;2.90;;
18249;SDS011;27980;52.126;5.572;2023-05-17T01:26:55;10.50;;;2.97;;
18249;SDS011;27980;52.126;5.572;2023-05-17T01:29:23;5.97;;;3.50;;
18249;SDS011;27980;52.126;5.572;2023-05-17T01:31:51;15.38;;;3.85;;
18249;SDS011;27980;52.126;5.572;2023-05-17T01:34:23;7.80;;;3.08;;
18249;SDS011;27980;52.126;5.572;2023-05-17T01:36:49;7.47;;;3.75;;
18249;SDS011;27980;52.126;5.572;2023-05-17T01:39:16;10.88;;;3.75;;
18249;SDS011;27980;52.126;5.572;2023-05-17T01:41:42;9.05;;;2.80;;
18249;SDS011;27980;52.126;5.572;2023-05-17T01:44:14;8.43;;;2.83;;
18249;SDS011;27980;52.126;5.572;2023-05-17T01:46:44;7.28;;;2.80;;
18249;SDS011;27980;52.126;5.572;2023-05-17T01:49:15;7.50;;;2.65;;
18249;SDS011;27980;52.126;5.572;2023-05-17T01:51:43;8.75;;;3.00;;
18249;SDS011;27980;52.126;5.572;2023-05-17T01:54:16;8.68;;;3.05;;
18249;SDS011;27980;52.126;5.572;2023-05-17T01:56:46;8.88;;;3.17;;
18249;SDS011;27980;52.126;5.572;2023-05-17T01:59:16;8.70;;;2.97;;
18249;SDS011;27980;52.126;5.572;2023-05-17T02:01:45;8.82;;;2.80;;
18249;SDS011;27980;52.126;5.572;2023-05-17T02:04:12;6.90;;;3.05;;
18249;SDS011;27980;52.126;5.572;2023-05-17T02:06:39;6.28;;;2.72;;
18249;SDS011;27980;52.126;5.572;2023-05-17T02:09:05;8.00;;;2.83;;
18249;SDS011;27980;52.126;5.572;2023-05-17T02:11:31;3.97;;;2.38;;
18249;SDS011;27980;52.126;5.572;2023-05-17T02:13:58;6.40;;;2.72;;
18249;SDS011;27980;52.126;5.572;2023-05-17T02:16:26;8.15;;;3.13;;
18249;SDS011;27980;52.126;5.572;2023-05-17T02:18:52;8.85;;;3.05;;
18249;SDS011;27980;52.126;5.572;2023-05-17T02:21:19;8.50;;;3.35;;
18249;SDS011;27980;52.126;5.572;2023-05-17T02:23:45;6.80;;;2.50;;
18249;SDS011;27980;52.126;5.572;2023-05-17T02:26:12;10.65;;;2.90;;
18249;SDS011;27980;52.126;5.572;2023-05-17T02:28:38;8.70;;;4.05;;
18249;SDS011;27980;52.126;5.572;2023-05-17T02:31:06;4.72;;;2.90;;
18249;SDS011;27980;52.126;5.572;2023-05-17T02:33:34;7.13;;;2.95;;
18249;SDS011;27980;52.126;5.572;2023-05-17T02:36:03;8.82;;;3.00;;
18249;SDS011;27980;52.126;5.572;2023-05-17T02:38:30;7.00;;;3.10;;
18249;SDS011;27980;52.126;5.572;2023-05-17T02:40:56;10.68;;;3.67;;
18249;SDS011;27980;52.126;5.572;2023-05-17T02:43:22;11.48;;;2.90;;
18249;SDS011;27980;52.126;5.572;2023-05-17T02:45:49;6.63;;;3.72;;
18249;SDS011;27980;52.126;5.572;2023-05-17T02:48:15;7.35;;;3.00;;
18249;SDS011;27980;52.126;5.572;2023-05-17T02:50:43;5.85;;;2.45;;
18249;SDS011;27980;52.126;5.572;2023-05-17T02:53:10;11.68;;;3.22;;
18249;SDS011;27980;52.126;5.572;2023-05-17T02:55:36;8.50;;;3.83;;
18249;SDS011;27980;52.126;5.572;2023-05-17T02:58:02;7.25;;;3.05;;
18249;SDS011;27980;52.126;5.572;2023-05-17T03:00:29;8.07;;;3.55;;
18249;SDS011;27980;52.126;5.572;2023-05-17T03:02:55;7.78;;;2.35;;
18249;SDS011;27980;52.126;5.572;2023-05-17T03:05:22;6.93;;;3.10;;
18249;SDS011;27980;52.126;5.572;2023-05-17T03:07:49;12.38;;;3.42;;
18249;SDS011;27980;52.126;5.572;2023-05-17T03:10:16;12.70;;;3.30;;
18249;SDS011;27980;52.126;5.572;2023-05-17T03:12:42;10.13;;;3.20;;
18249;SDS011;27980;52.126;5.572;2023-05-17T03:15:09;6.82;;;3.03;;
18249;SDS011;27980;52.126;5.572;2023-05-17T03:17:35;11.02;;;3.10;;
18249;SDS011;27980;52.126;5.572;2023-05-17T03:20:02;11.75;;;3.15;;
18249;SDS011;27980;52.126;5.572;2023-05-17T03:22:30;7.00;;;3.30;;
18249;SDS011;27980;52.126;5.572;2023-05-17T03:24:58;5.15;;;2.47;;
18249;SDS011;27980;52.126;5.572;2023-05-17T03:27:24;9.13;;;3.17;;
18249;SDS011;27980;52.126;5.572;2023-05-17T03:29:50;13.38;;;3.45;;
18249;SDS011;27980;52.126;5.572;2023-05-17T03:32:17;9.35;;;3.40;;
18249;SDS011;27980;52.126;5.572;2023-05-17T03:34:45;9.27;;;2.83;;
18249;SDS011;27980;52.126;5.572;2023-05-17T03:37:12;9.13;;;3.10;;
18249;SDS011;27980;52.126;5.572;2023-05-17T03:39:38;4.00;;;2.60;;
18249;SDS011;27980;52.126;5.572;2023-05-17T03:42:06;13.02;;;2.90;;
18249;SDS011;27980;52.126;5.572;2023-05-17T03:44:32;9.23;;;2.92;;
18249;SDS011;27980;52.126;5.572;2023-05-17T03:46:58;5.15;;;2.88;;
18249;SDS011;27980;52.126;5.572;2023-05-17T03:49:25;6.30;;;3.15;;
18249;SDS011;27980;52.126;5.572;2023-05-17T03:51:51;8.85;;;3.08;;
18249;SDS011;27980;52.126;5.572;2023-05-17T03:54:18;11.45;;;3.13;;
18249;SDS011;27980;52.126;5.572;2023-05-17T03:56:44;8.23;;;3.47;;
18249;SDS011;27980;52.126;5.572;2023-05-17T03:59:14;6.95;;;3.45;;
18249;SDS011;27980;52.126;5.572;2023-05-17T04:01:42;7.70;;;3.22;;
18249;SDS011;27980;52.126;5.572;2023-05-17T04:04:09;8.75;;;3.25;;
18249;SDS011;27980;52.126;5.572;2023-05-17T04:06:37;7.78;;;2.83;;
18249;SDS011;27980;52.126;5.572;2023-05-17T04:09:04;7.05;;;2.55;;
18249;SDS011;27980;52.126;5.572;2023-05-17T04:11:31;11.27;;;3.28;;
18249;SDS011;27980;52.126;5.572;2023-05-17T04:13:57;11.07;;;3.67;;
18249;SDS011;27980;52.126;5.572;2023-05-17T04:16:25;6.40;;;3.00;;
18249;SDS011;27980;52.126;5.572;2023-05-17T04:18:52;11.77;;;4.18;;
18249;SDS011;27980;52.126;5.572;2023-05-17T04:21:18;15.18;;;3.30;;
18249;SDS011;27980;52.126;5.572;2023-05-17T04:23:45;6.55;;;3.17;;
18249;SDS011;27980;52.126;5.572;2023-05-17T04:26:11;7.88;;;3.65;;
18249;SDS011;27980;52.126;5.572;2023-05-17T04:28:39;8.07;;;3.13;;
18249;SDS011;27980;52.126;5.572;2023-05-17T04:31:06;8.65;;;3.80;;
18249;SDS011;27980;52.126;5.572;2023-05-17T04:33:34;9.80;;;3.35;;
18249;SDS011;27980;52.126;5.572;2023-05-17T04:36:01;7.90;;;3.03;;
18249;SDS011;27980;52.126;5.572;2023-05-17T04:38:28;13.50;;;3.28;;
18249;SDS011;27980;52.126;5.572;2023-05-17T04:40:59;6.78;;;2.97;;
18249;SDS011;27980;52.126;5.572;2023-05-17T04:43:25;5.97;;;2.53;;
18249;SDS011;27980;52.126;5.572;2023-05-17T04:45:54;7.65;;;3.03;;
18249;SDS011;27980;52.126;5.572;2023-05-17T04:48:22;10.43;;;3.72;;
18249;SDS011;27980;52.126;5.572;2023-05-17T04:50:51;7.10;;;2.88;;
18249;SDS011;27980;52.126;5.572;2023-05-17T04:53:17;6.07;;;2.65;;
18249;SDS011;27980;52.126;5.572;2023-05-17T04:55:44;11.73;;;3.28;;
18249;SDS011;27980;52.126;5.572;2023-05-17T04:58:12;13.32;;;2.80;;
18249;SDS011;27980;52.126;5.572;2023-05-17T05:00:38;5.78;;;2.38;;
18249;SDS011;27980;52.126;5.572;2023-05-17T05:03:05;5.95;;;2.45;;
18249;SDS011;27980;52.126;5.572;2023-05-17T05:05:31;7.45;;;2.88;;
18249;SDS011;27980;52.126;5.572;2023-05-17T05:07:59;10.13;;;2.22;;
18249;SDS011;27980;52.126;5.572;2023-05-17T05:10:26;2.72;;;1.50;;
18249;SDS011;27980;52.126;5.572;2023-05-17T05:12:53;7.68;;;2.25;;
18249;SDS011;27980;52.126;5.572;2023-05-17T05:15:22;5.45;;;1.88;;
18249;SDS011;27980;52.126;5.572;2023-05-17T05:17:48;3.03;;;1.77;;
18249;SDS011;27980;52.126;5.572;2023-05-17T05:20:15;10.45;;;1.73;;
18249;SDS011;27980;52.126;5.572;2023-05-17T05:22:42;8.00;;;2.00;;
18249;SDS011;27980;52.126;5.572;2023-05-17T05:25:10;7.75;;;2.00;;
18249;SDS011;27980;52.126;5.572;2023-05-17T05:27:36;4.88;;;1.90;;
18249;SDS011;27980;52.126;5.572;2023-05-17T05:30:03;8.65;;;2.42;;
18249;SDS011;27980;52.126;5.572;2023-05-17T05:32:30;7.47;;;2.17;;
18249;SDS011;27980;52.126;5.572;2023-05-17T05:34:56;10.05;;;1.70;;
18249;SDS011;27980;52.126;5.572;2023-05-17T05:37:23;6.82;;;1.95;;
18249;SDS011;27980;52.126;5.572;2023-05-17T05:39:52;7.55;;;1.80;;
18249;SDS011;27980;52.126;5.572;2023-05-17T05:42:22;3.95;;;2.00;;
18249;SDS011;27980;52.126;5.572;2023-05-17T05:44:48;7.82;;;1.85;;
18249;SDS011;27980;52.126;5.572;2023-05-17T05:47:15;3.80;;;1.30;;
18249;SDS011;27980;52.126;5.572;2023-05-17T05:49:41;7.43;;;2.45;;
18249;SDS011;27980;52.126;5.572;2023-05-17T05:52:08;3.17;;;1.45;;
18249;SDS011;27980;52.126;5.572;2023-05-17T05:54:37;2.67;;;1.35;;
18249;SDS011;27980;52.126;5.572;2023-05-17T05:57:04;7.85;;;1.50;;
18249;SDS011;27980;52.126;5.572;2023-05-17T05:59:32;2.25;;;1.23;;
18249;SDS011;27980;52.126;5.572;2023-05-17T06:01:58;4.78;;;1.02;;
18249;SDS011;27980;52.126;5.572;2023-05-17T06:04:25;3.85;;;1.13;;
18249;SDS011;27980;52.126;5.572;2023-05-17T06:06:52;7.28;;;1.00;;
18249;SDS011;27980;52.126;5.572;2023-05-17T06:09:19;4.70;;;1.13;;
18249;SDS011;27980;52.126;5.572;2023-05-17T06:11:45;10.18;;;1.42;;
18249;SDS011;27980;52.126;5.572;2023-05-17T06:14:13;5.13;;;1.80;;
18249;SDS011;27980;52.126;5.572;2023-05-17T06:16:41;1.92;;;1.00;;
18249;SDS011;27980;52.126;5.572;2023-05-17T06:19:07;5.28;;;1.27;;
18249;SDS011;27980;52.126;5.572;2023-05-17T06:21:34;2.33;;;1.25;;
18249;SDS011;27980;52.126;5.572;2023-05-17T06:24:00;3.72;;;1.30;;
18249;SDS011;27980;52.126;5.572;2023-05-17T06:26:26;7.15;;;1.42;;
18249;SDS011;27980;52.126;5.572;2023-05-17T06:28:53;2.47;;;1.10;;
18249;SDS011;27980;52.126;5.572;2023-05-17T06:31:19;5.60;;;1.35;;
18249;SDS011;27980;52.126;5.572;2023-05-17T06:33:47;5.40;;;1.90;;
18249;SDS011;27980;52.126;5.572;2023-05-17T06:36:13;3.00;;;0.88;;
18249;SDS011;27980;52.126;5.572;2023-05-17T06:38:41;3.20;;;1.17;;
18249;SDS011;27980;52.126;5.572;2023-05-17T06:41:10;3.00;;;0.80;;
18249;SDS011;27980;52.126;5.572;2023-05-17T06:43:39;3.83;;;0.90;;
18249;SDS011;27980;52.126;5.572;2023-05-17T06:46:05;6.38;;;1.20;;
18249;SDS011;27980;52.126;5.572;2023-05-17T06:48:32;3.92;;;1.17;;
18249;SDS011;27980;52.126;5.572;2023-05-17T06:50:59;3.63;;;0.90;;
18249;SDS011;27980;52.126;5.572;2023-05-17T06:53:26;2.90;;;0.98;;
18249;SDS011;27980;52.126;5.572;2023-05-17T06:55:52;1.63;;;0.85;;
18249;SDS011;27980;52.126;5.572;2023-05-17T06:58:19;3.63;;;1.05;;
18249;SDS011;27980;52.126;5.572;2023-05-17T07:00:46;3.70;;;0.93;;
18249;SDS011;27980;52.126;5.572;2023-05-17T07:03:15;3.53;;;0.80;;
18249;SDS011;27980;52.126;5.572;2023-05-17T07:05:41;2.35;;;0.90;;
18249;SDS011;27980;52.126;5.572;2023-05-17T07:08:09;4.07;;;1.05;;
18249;SDS011;27980;52.126;5.572;2023-05-17T07:10:35;4.35;;;1.25;;
18249;SDS011;27980;52.126;5.572;2023-05-17T07:13:02;3.97;;;0.70;;
18249;SDS011;27980;52.126;5.572;2023-05-17T07:15:28;2.33;;;0.70;;
18249;SDS011;27980;52.126;5.572;2023-05-17T07:17:54;6.95;;;1.23;;
18249;SDS011;27980;52.126;5.572;2023-05-17T07:20:21;1.63;;;0.45;;
18249;SDS011;27980;52.126;5.572;2023-05-17T07:22:49;3.25;;;0.77;;
18249;SDS011;27980;52.126;5.572;2023-05-17T07:25:22;1.70;;;0.85;;
18249;SDS011;27980;52.126;5.572;2023-05-17T07:27:51;3.78;;;0.93;;
18249;SDS011;27980;52.126;5.572;2023-05-17T07:30:17;3.53;;;0.90;;
18249;SDS011;27980;52.126;5.572;2023-05-17T07:32:43;2.03;;;0.47;;
18249;SDS011;27980;52.126;5.572;2023-05-17T07:35:10;2.25;;;0.82;;
18249;SDS011;27980;52.126;5.572;2023-05-17T07:37:36;5.45;;;0.93;;
18249;SDS011;27980;52.126;5.572;2023-05-17T07:40:04;4.00;;;0.98;;
18249;SDS011;27980;52.126;5.572;2023-05-17T07:42:32;2.42;;;0.68;;
18249;SDS011;27980;52.126;5.572;2023-05-17T07:45:00;5.32;;;0.80;;
18249;SDS011;27980;52.126;5.572;2023-05-17T07:47:27;4.28;;;0.80;;
18249;SDS011;27980;52.126;5.572;2023-05-17T07:49:54;4.00;;;1.35;;
18249;SDS011;27980;52.126;5.572;2023-05-17T07:52:21;4.03;;;1.23;;
18249;SDS011;27980;52.126;5.572;2023-05-17T07:54:47;2.22;;;0.50;;
18249;SDS011;27980;52.126;5.572;2023-05-17T07:57:13;2.22;;;0.90;;
18249;SDS011;27980;52.126;5.572;2023-05-17T07:59:41;2.72;;;0.77;;
18249;SDS011;27980;52.126;5.572;2023-05-17T08:02:08;2.45;;;0.80;;
18249;SDS011;27980;52.126;5.572;2023-05-17T08:04:34;2.40;;;1.08;;
18249;SDS011;27980;52.126;5.572;2023-05-17T08:07:01;2.00;;;0.52;;
18249;SDS011;27980;52.126;5.572;2023-05-17T08:09:27;3.28;;;1.35;;
18249;SDS011;27980;52.126;5.572;2023-05-17T08:11:56;3.65;;;0.90;;
18249;SDS011;27980;52.126;5.572;2023-05-17T08:14:23;1.20;;;0.47;;
18249;SDS011;27980;52.126;5.572;2023-05-17T08:16:52;5.95;;;0.95;;
18249;SDS011;27980;52.126;5.572;2023-05-17T08:19:18;2.17;;;0.60;;
18249;SDS011;27980;52.126;5.572;2023-05-17T08:21:45;3.15;;;0.75;;
18249;SDS011;27980;52.126;5.572;2023-05-17T08:24:11;4.47;;;1.10;;
18249;SDS011;27980;52.126;5.572;2023-05-17T08:26:38;3.03;;;1.00;;
18249;SDS011;27980;52.126;5.572;2023-05-17T08:29:04;2.40;;;0.80;;
18249;SDS011;27980;52.126;5.572;2023-05-17T08:31:31;2.75;;;0.82;;
18249;SDS011;27980;52.126;5.572;2023-05-17T08:34:00;1.02;;;0.63;;
18249;SDS011;27980;52.126;5.572;2023-05-17T08:36:27;1.70;;;0.70;;
18249;SDS011;27980;52.126;5.572;2023-05-17T08:38:53;3.38;;;0.60;;
18249;SDS011;27980;52.126;5.572;2023-05-17T08:41:19;3.03;;;0.63;;
18249;SDS011;27980;52.126;5.572;2023-05-17T08:43:46;0.93;;;0.68;;
18249;SDS011;27980;52.126;5.572;2023-05-17T08:46:15;1.48;;;0.50;;
18249;SDS011;27980;52.126;5.572;2023-05-17T08:48:45;2.22;;;0.80;;
18249;SDS011;27980;52.126;5.572;2023-05-17T08:51:17;2.55;;;0.80;;
18249;SDS011;27980;52.126;5.572;2023-05-17T08:53:46;4.03;;;1.15;;
18249;SDS011;27980;52.126;5.572;2023-05-17T08:56:14;2.13;;;0.93;;
18249;SDS011;27980;52.126;5.572;2023-05-17T08:58:41;2.35;;;0.77;;
18249;SDS011;27980;52.126;5.572;2023-05-17T09:01:10;1.75;;;0.55;;
18249;SDS011;27980;52.126;5.572;2023-05-17T09:03:37;0.95;;;0.70;;
18249;SDS011;27980;52.126;5.572;2023-05-17T09:06:05;2.60;;;1.00;;
18249;SDS011;27980;52.126;5.572;2023-05-17T09:08:35;1.58;;;0.52;;
18249;SDS011;27980;52.126;5.572;2023-05-17T09:11:02;2.40;;;0.60;;
18249;SDS011;27980;52.126;5.572;2023-05-17T09:13:28;0.90;;;0.50;;
18249;SDS011;27980;52.126;5.572;2023-05-17T09:15:55;3.83;;;1.25;;
18249;SDS011;27980;52.126;5.572;2023-05-17T09:18:27;3.33;;;0.60;;
18249;SDS011;27980;52.126;5.572;2023-05-17T09:20:54;1.60;;;0.80;;
18249;SDS011;27980;52.126;5.572;2023-05-17T09:23:20;1.00;;;0.50;;
18249;SDS011;27980;52.126;5.572;2023-05-17T09:25:48;1.67;;;0.45;;
18249;SDS011;27980;52.126;5.572;2023-05-17T09:28:17;4.15;;;0.77;;
18249;SDS011;27980;52.126;5.572;2023-05-17T09:30:43;1.48;;;0.73;;
18249;SDS011;27980;52.126;5.572;2023-05-17T09:33:11;2.13;;;0.45;;
18249;SDS011;27980;52.126;5.572;2023-05-17T09:35:39;3.47;;;0.82;;
18249;SDS011;27980;52.126;5.572;2023-05-17T09:38:07;2.83;;;0.47;;
18249;SDS011;27980;52.126;5.572;2023-05-17T09:40:38;2.75;;;0.82;;
18249;SDS011;27980;52.126;5.572;2023-05-17T09:43:06;4.13;;;0.98;;
18249;SDS011;27980;52.126;5.572;2023-05-17T09:45:33;1.10;;;0.55;;
18249;SDS011;27980;52.126;5.572;2023-05-17T09:48:10;1.27;;;0.40;;
18249;SDS011;27980;52.126;5.572;2023-05-17T09:50:41;1.30;;;0.40;;
18249;SDS011;27980;52.126;5.572;2023-05-17T09:53:15;2.55;;;0.82;;
18249;SDS011;27980;52.126;5.572;2023-05-17T09:55:47;1.30;;;0.57;;
18249;SDS011;27980;52.126;5.572;2023-05-17T09:58:14;1.35;;;0.70;;
18249;SDS011;27980;52.126;5.572;2023-05-17T10:00:42;3.08;;;0.90;;
18249;SDS011;27980;52.126;5.572;2023-05-17T10:03:09;4.15;;;0.70;;
18249;SDS011;27980;52.126;5.572;2023-05-17T10:05:37;3.65;;;0.63;;
18249;SDS011;27980;52.126;5.572;2023-05-17T10:08:04;4.80;;;1.17;;
18249;SDS011;27980;52.126;5.572;2023-05-17T10:10:32;1.70;;;0.60;;
18249;SDS011;27980;52.126;5.572;2023-05-17T10:12:58;0.77;;;0.35;;
18249;SDS011;27980;52.126;5.572;2023-05-17T10:15:27;1.83;;;0.60;;
18249;SDS011;27980;52.126;5.572;2023-05-17T10:17:53;2.63;;;0.95;;
18249;SDS011;27980;52.126;5.572;2023-05-17T10:20:20;1.88;;;0.85;;
18249;SDS011;27980;52.126;5.572;2023-05-17T10:22:46;3.67;;;0.57;;
18249;SDS011;27980;52.126;5.572;2023-05-17T10:25:14;1.80;;;0.73;;
18249;SDS011;27980;52.126;5.572;2023-05-17T10:27:41;2.63;;;0.50;;
18249;SDS011;27980;52.126;5.572;2023-05-17T10:30:08;3.65;;;1.25;;
18249;SDS011;27980;52.126;5.572;2023-05-17T10:32:36;3.22;;;0.88;;
18249;SDS011;27980;52.126;5.572;2023-05-17T10:35:03;2.83;;;0.60;;
18249;SDS011;27980;52.126;5.572;2023-05-17T10:37:31;3.50;;;0.70;;
18249;SDS011;27980;52.126;5.572;2023-05-17T10:39:58;4.28;;;0.80;;
18249;SDS011;27980;52.126;5.572;2023-05-17T10:42:25;3.40;;;0.68;;
18249;SDS011;27980;52.126;5.572;2023-05-17T10:44:53;1.27;;;0.70;;
18249;SDS011;27980;52.126;5.572;2023-05-17T10:47:20;1.60;;;0.60;;
18249;SDS011;27980;52.126;5.572;2023-05-17T10:49:49;2.47;;;0.63;;
18249;SDS011;27980;52.126;5.572;2023-05-17T10:52:16;4.00;;;0.75;;
18249;SDS011;27980;52.126;5.572;2023-05-17T10:54:44;1.88;;;0.80;;
18249;SDS011;27980;52.126;5.572;2023-05-17T10:57:17;2.20;;;0.93;;
18249;SDS011;27980;52.126;5.572;2023-05-17T10:59:54;1.25;;;0.77;;
18249;SDS011;27980;52.126;5.572;2023-05-17T11:02:24;1.20;;;0.50;;
18249;SDS011;27980;52.126;5.572;2023-05-17T11:04:52;3.05;;;0.85;;
18249;SDS011;27980;52.126;5.572;2023-05-17T11:07:24;3.88;;;0.77;;
18249;SDS011;27980;52.126;5.572;2023-05-17T11:09:52;1.23;;;0.63;;
18249;SDS011;27980;52.126;5.572;2023-05-17T11:12:29;1.90;;;0.70;;
18249;SDS011;27980;52.126;5.572;2023-05-17T11:14:58;2.97;;;0.82;;
18249;SDS011;27980;52.126;5.572;2023-05-17T11:17:26;2.45;;;0.60;;
18249;SDS011;27980;52.126;5.572;2023-05-17T11:19:58;2.30;;;0.85;;
18249;SDS011;27980;52.126;5.572;2023-05-17T11:22:26;3.17;;;0.80;;
18249;SDS011;27980;52.126;5.572;2023-05-17T11:24:55;3.70;;;0.98;;
18249;SDS011;27980;52.126;5.572;2023-05-17T11:27:22;4.30;;;1.15;;
18249;SDS011;27980;52.126;5.572;2023-05-17T11:29:53;2.95;;;0.95;;
18249;SDS011;27980;52.126;5.572;2023-05-17T11:32:25;1.77;;;0.73;;
18249;SDS011;27980;52.126;5.572;2023-05-17T11:34:52;3.17;;;0.80;;
18249;SDS011;27980;52.126;5.572;2023-05-17T11:37:27;2.85;;;0.80;;
18249;SDS011;27980;52.126;5.572;2023-05-17T11:40:01;3.20;;;0.95;;
18249;SDS011;27980;52.126;5.572;2023-05-17T11:42:29;3.75;;;0.80;;
18249;SDS011;27980;52.126;5.572;2023-05-17T11:44:55;3.45;;;1.00;;
18249;SDS011;27980;52.126;5.572;2023-05-17T11:47:21;2.60;;;0.82;;
18249;SDS011;27980;52.126;5.572;2023-05-17T11:49:48;1.98;;;0.70;;
18249;SDS011;27980;52.126;5.572;2023-05-17T11:52:17;3.00;;;0.85;;
18249;SDS011;27980;52.126;5.572;2023-05-17T11:54:45;1.75;;;0.57;;
18249;SDS011;27980;52.126;5.572;2023-05-17T11:57:13;3.28;;;0.90;;
18249;SDS011;27980;52.126;5.572;2023-05-17T11:59:42;1.30;;;0.57;;
18249;SDS011;27980;52.126;5.572;2023-05-17T12:02:25;3.33;;;1.25;;
18249;SDS011;27980;52.126;5.572;2023-05-17T12:04:55;2.25;;;0.75;;
18249;SDS011;27980;52.126;5.572;2023-05-17T12:07:22;2.33;;;0.65;;
18249;SDS011;27980;52.126;5.572;2023-05-17T12:09:51;1.42;;;0.60;;
18249;SDS011;27980;52.126;5.572;2023-05-17T12:12:17;3.40;;;0.95;;
18249;SDS011;27980;52.126;5.572;2023-05-17T12:14:45;3.00;;;1.00;;
18249;SDS011;27980;52.126;5.572;2023-05-17T12:17:15;3.05;;;0.80;;
18249;SDS011;27980;52.126;5.572;2023-05-17T12:19:45;4.60;;;1.00;;
18249;SDS011;27980;52.126;5.572;2023-05-17T12:22:11;5.22;;;1.80;;
18249;SDS011;27980;52.126;5.572;2023-05-17T12:24:39;4.68;;;0.93;;
18249;SDS011;27980;52.126;5.572;2023-05-17T12:27:07;2.45;;;0.93;;
18249;SDS011;27980;52.126;5.572;2023-05-17T12:29:36;2.85;;;0.75;;
18249;SDS011;27980;52.126;5.572;2023-05-17T12:32:04;4.47;;;1.20;;
18249;SDS011;27980;52.126;5.572;2023-05-17T12:34:30;1.88;;;0.60;;
18249;SDS011;27980;52.126;5.572;2023-05-17T12:36:57;1.60;;;1.00;;
18249;SDS011;27980;52.126;5.572;2023-05-17T12:39:23;4.28;;;0.70;;
18249;SDS011;27980;52.126;5.572;2023-05-17T12:41:51;3.80;;;1.20;;
18249;SDS011;27980;52.126;5.572;2023-05-17T12:44:20;4.15;;;0.82;;
18249;SDS011;27980;52.126;5.572;2023-05-17T12:46:49;3.90;;;0.88;;
18249;SDS011;27980;52.126;5.572;2023-05-17T12:49:18;2.90;;;0.98;;
18249;SDS011;27980;52.126;5.572;2023-05-17T12:51:45;1.63;;;0.70;;
18249;SDS011;27980;52.126;5.572;2023-05-17T12:54:13;2.72;;;1.10;;
18249;SDS011;27980;52.126;5.572;2023-05-17T12:56:41;2.15;;;0.73;;
18249;SDS011;27980;52.126;5.572;2023-05-17T12:59:10;1.60;;;0.85;;
18249;SDS011;27980;52.126;5.572;2023-05-17T13:01:42;2.92;;;0.90;;
18249;SDS011;27980;52.126;5.572;2023-05-17T13:04:08;2.13;;;0.93;;
18249;SDS011;27980;52.126;5.572;2023-05-17T13:06:42;1.35;;;0.70;;
18249;SDS011;27980;52.126;5.572;2023-05-17T13:09:08;6.65;;;0.95;;
18249;SDS011;27980;52.126;5.572;2023-05-17T13:11:37;2.38;;;0.93;;
18249;SDS011;27980;52.126;5.572;2023-05-17T13:14:05;2.13;;;0.75;;
18249;SDS011;27980;52.126;5.572;2023-05-17T13:16:32;2.58;;;0.73;;
18249;SDS011;27980;52.126;5.572;2023-05-17T13:19:00;2.03;;;0.73;;
18249;SDS011;27980;52.126;5.572;2023-05-17T13:21:27;3.15;;;1.20;;
18249;SDS011;27980;52.126;5.572;2023-05-17T13:23:54;3.70;;;0.90;;
18249;SDS011;27980;52.126;5.572;2023-05-17T13:26:20;4.88;;;1.25;;
18249;SDS011;27980;52.126;5.572;2023-05-17T13:28:49;2.53;;;1.00;;
18249;SDS011;27980;52.126;5.572;2023-05-17T13:31:15;3.45;;;1.00;;
18249;SDS011;27980;52.126;5.572;2023-05-17T13:33:44;4.68;;;1.05;;
18249;SDS011;27980;52.126;5.572;2023-05-17T13:36:15;2.53;;;1.00;;
18249;SDS011;27980;52.126;5.572;2023-05-17T13:38:41;4.80;;;1.15;;
18249;SDS011;27980;52.126;5.572;2023-05-17T13:41:09;1.58;;;0.65;;
18249;SDS011;27980;52.126;5.572;2023-05-17T13:43:35;4.13;;;1.42;;
18249;SDS011;27980;52.126;5.572;2023-05-17T13:46:02;2.83;;;0.70;;
18249;SDS011;27980;52.126;5.572;2023-05-17T13:48:28;7.15;;;1.17;;
18249;SDS011;27980;52.126;5.572;2023-05-17T13:50:55;2.08;;;0.85;;
18249;SDS011;27980;52.126;5.572;2023-05-17T13:53:23;2.58;;;1.05;;
18249;SDS011;27980;52.126;5.572;2023-05-17T13:55:50;4.40;;;1.08;;
18249;SDS011;27980;52.126;5.572;2023-05-17T13:58:16;4.13;;;1.05;;
18249;SDS011;27980;52.126;5.572;2023-05-17T14:00:44;3.30;;;1.08;;
18249;SDS011;27980;52.126;5.572;2023-05-17T14:03:10;2.50;;;1.00;;
18249;SDS011;27980;52.126;5.572;2023-05-17T14:05:37;7.50;;;1.38;;
18249;SDS011;27980;52.126;5.572;2023-05-17T14:08:05;1.92;;;0.90;;
18249;SDS011;27980;52.126;5.572;2023-05-17T14:10:35;4.38;;;1.02;;
18249;SDS011;27980;52.126;5.572;2023-05-17T14:13:02;2.03;;;0.68;;
18249;SDS011;27980;52.126;5.572;2023-05-17T14:15:29;3.65;;;0.90;;
18249;SDS011;27980;52.126;5.572;2023-05-17T14:18:01;5.32;;;1.40;;
18249;SDS011;27980;52.126;5.572;2023-05-17T14:20:30;4.68;;;1.08;;
18249;SDS011;27980;52.126;5.572;2023-05-17T14:22:57;4.43;;;0.80;;
18249;SDS011;27980;52.126;5.572;2023-05-17T14:25:23;1.98;;;1.08;;
18249;SDS011;27980;52.126;5.572;2023-05-17T14:27:51;3.88;;;0.95;;
18249;SDS011;27980;52.126;5.572;2023-05-17T14:30:18;4.13;;;0.75;;
18249;SDS011;27980;52.126;5.572;2023-05-17T14:32:44;3.60;;;1.40;;
18249;SDS011;27980;52.126;5.572;2023-05-17T14:35:11;4.97;;;1.00;;
18249;SDS011;27980;52.126;5.572;2023-05-17T14:37:37;3.10;;;0.90;;
18249;SDS011;27980;52.126;5.572;2023-05-17T14:40:04;1.80;;;0.93;;
18249;SDS011;27980;52.126;5.572;2023-05-17T14:42:31;6.53;;;1.10;;
18249;SDS011;27980;52.126;5.572;2023-05-17T14:44:59;3.63;;;0.98;;
18249;SDS011;27980;52.126;5.572;2023-05-17T14:47:26;5.40;;;1.27;;